Time;durP1;ratioP1;P1;durP2;ratioP2;P2;SDS_P1;SDS_P2;PMS_P1;PMS_P2;Temp;Humidity;BMP_temperature;BMP_pressure;BME280_temperature;BME280_humidity;BME280_pressure;Samples;Min_cycle;Max_cycle;Signal;HPM_P1;HPM_P2
2023/10/05 00:01:10;;;;;;;13.95;6.97;;;;;;;16.09;76.11;94753.47;5022512;28;20030;-76
2023/10/05 00:03:38;;;;;;;15.73;7.47;;;;;;;16.11;76.04;94756.63;5022571;28;20093;-76
2023/10/05 00:06:16;;;;;;;20.02;7.22;;;;;;;16.04;76.18;94751.75;5022554;28;20018;-76
2023/10/05 00:08:47;;;;;;;19.40;8.05;;;;;;;16.04;76.27;94743.69;5022487;28;20216;-76
2023/10/05 00:11:23;;;;;;;17.50;7.50;;;;;;;16.04;76.33;94753.66;5022299;28;20222;-76
2023/10/05 00:13:53;;;;;;;25.05;7.45;;;;;;;15.97;76.25;94756.06;5022287;28;20022;-75
2023/10/05 00:16:22;;;;;;;18.20;7.35;;;;;;;15.93;76.60;94766.69;5022411;28;20045;-75
2023/10/05 00:18:52;;;;;;;12.68;6.75;;;;;;;15.99;76.34;94756.53;5022268;28;20034;-76
2023/10/05 00:21:19;;;;;;;18.48;9.07;;;;;;;15.93;76.50;94752.44;5022396;28;20029;-76
2023/10/05 00:23:50;;;;;;;24.50;9.32;;;;;;;15.89;76.75;94754.22;5022365;28;20017;-76
2023/10/05 00:26:15;;;;;;;14.77;7.43;;;;;;;15.86;76.75;94749.50;5022406;28;20026;-76
2023/10/05 00:28:47;;;;;;;13.55;7.47;;;;;;;15.79;77.41;94750.81;5025768;28;20029;-76
2023/10/05 00:31:14;;;;;;;16.10;7.10;;;;;;;15.87;77.01;94748.38;5025894;28;20046;-76
2023/10/05 00:33:40;;;;;;;18.17;6.63;;;;;;;15.85;77.09;94754.06;5025782;28;20022;-76
2023/10/05 00:36:05;;;;;;;17.58;7.75;;;;;;;15.83;76.95;94748.22;5025618;28;20334;-76
2023/10/05 00:38:31;;;;;;;17.38;8.00;;;;;;;15.83;77.14;94745.53;5025418;28;20038;-76
2023/10/05 00:40:58;;;;;;;18.63;7.68;;;;;;;15.85;76.91;94743.31;5025373;28;20339;-76
2023/10/05 00:43:24;;;;;;;12.07;6.68;;;;;;;15.88;76.80;94744.59;5025598;28;20040;-76
2023/10/05 00:45:51;;;;;;;13.70;7.72;;;;;;;15.86;76.57;94744.91;5025492;28;20022;-76
2023/10/05 00:48:34;;;;;;;15.10;7.63;;;;;;;15.89;76.90;94748.84;5025292;28;20224;-76
2023/10/05 00:51:04;;;;;;;19.02;7.78;;;;;;;15.88;76.69;94747.28;5025380;28;20264;-77
2023/10/05 00:53:32;;;;;;;14.50;6.55;;;;;;;15.95;76.36;94747.53;5025176;28;20022;-76
2023/10/05 00:56:07;;;;;;;13.88;7.38;;;;;;;15.95;76.15;94742.16;5023981;28;20056;-76
2023/10/05 00:58:38;;;;;;;14.88;8.07;;;;;;;15.95;76.09;94742.16;5025543;28;20025;-76
2023/10/05 01:01:14;;;;;;;21.15;7.22;;;;;;;15.95;76.41;94742.16;5025243;28;20303;-76
2023/10/05 01:03:59;;;;;;;18.23;6.90;;;;;;;15.97;76.12;94742.63;5025005;28;20308;-76
2023/10/05 01:06:31;;;;;;;13.45;7.07;;;;;;;15.93;76.25;94741.69;5025206;28;20028;-75
2023/10/05 01:09:00;;;;;;;16.50;6.47;;;;;;;15.94;75.81;94738.69;5025036;28;20312;-76
2023/10/05 01:11:52;;;;;;;14.48;7.32;;;;;;;15.93;75.62;94737.09;5024806;28;20367;-76
2023/10/05 01:14:18;;;;;;;18.58;7.40;;;;;;;15.90;75.86;94734.31;5023933;28;20040;-76
2023/10/05 01:16:45;;;;;;;14.70;7.30;;;;;;;15.88;75.79;94736.53;5024797;28;20022;-76
2023/10/05 01:19:11;;;;;;;15.10;7.50;;;;;;;15.87;76.07;94726.88;5024850;28;20022;-76
2023/10/05 01:21:37;;;;;;;12.07;7.15;;;;;;;15.87;75.57;94734.94;5024701;28;20021;-76
2023/10/05 01:24:03;;;;;;;17.00;6.95;;;;;;;15.86;75.56;94733.38;5024829;28;20029;-76
2023/10/05 01:26:28;;;;;;;12.32;6.82;;;;;;;15.84;75.68;94728.31;5024715;28;20359;-76
2023/10/05 01:28:54;;;;;;;17.83;7.00;;;;;;;15.84;75.69;94731.78;5024641;28;20033;-75
2023/10/05 01:31:21;;;;;;;17.00;6.95;;;;;;;15.86;75.30;94734.16;5024629;28;20021;-76
2023/10/05 01:33:47;;;;;;;21.30;7.20;;;;;;;15.82;75.29;94736.69;5024593;28;20022;-76
2023/10/05 01:36:17;;;;;;;14.60;6.60;;;;;;;15.86;75.15;94738.75;5024503;28;20096;-75
2023/10/05 01:38:44;;;;;;;10.15;6.15;;;;;;;15.79;74.98;94729.28;5039467;28;20317;-75
2023/10/05 01:41:10;;;;;;;21.83;6.72;;;;;;;15.81;74.69;94727.06;5024532;28;20022;-76
2023/10/05 01:43:36;;;;;;;14.02;6.47;;;;;;;15.77;74.96;94734.22;5024554;28;20092;-76
2023/10/05 01:46:04;;;;;;;24.90;7.05;;;;;;;15.83;74.73;94730.22;5024439;28;20021;-75
2023/10/05 01:48:31;;;;;;;13.10;6.28;;;;;;;15.80;74.69;94722.00;5024320;28;20081;-75
2023/10/05 01:51:06;;;;;;;13.80;6.05;;;;;;;15.81;74.75;94727.06;5024229;28;20026;-75
2023/10/05 01:53:32;;;;;;;12.65;6.38;;;;;;;15.81;74.39;94731.63;5024392;28;20044;-75
2023/10/05 01:55:59;;;;;;;19.05;5.65;;;;;;;15.83;74.52;94724.03;5024151;28;20022;-75
2023/10/05 01:58:34;;;;;;;11.18;6.10;;;;;;;15.82;74.60;94722.47;5024193;28;20109;-75
2023/10/05 02:00:59;;;;;;;11.68;6.18;;;;;;;15.78;74.20;94727.72;5022743;28;20056;-75
2023/10/05 02:03:25;;;;;;;14.88;5.90;;;;;;;15.75;74.39;94728.38;5024290;28;20172;-76
2023/10/05 02:05:58;;;;;;;13.57;6.68;;;;;;;15.68;73.86;94719.19;5022817;28;20033;-75
2023/10/05 02:08:23;;;;;;;15.63;6.07;;;;;;;15.57;74.50;94724.13;5024108;28;20021;-75
2023/10/05 02:10:50;;;;;;;25.95;6.10;;;;;;;15.63;74.36;94720.16;5024073;28;20021;-75
2023/10/05 02:13:16;;;;;;;18.48;6.78;;;;;;;15.68;74.47;94733.41;5023812;28;20032;-76
2023/10/05 02:15:42;;;;;;;12.50;6.13;;;;;;;15.58;74.65;94729.19;5023719;28;20018;-76
2023/10/05 02:18:28;;;;;;;14.93;5.95;;;;;;;15.61;74.19;94728.56;5022705;28;20284;-75
2023/10/05 02:21:01;;;;;;;14.13;6.13;;;;;;;15.62;74.13;94718.59;5023903;28;20101;-75
2023/10/05 02:23:29;;;;;;;15.63;6.18;;;;;;;15.58;74.16;94723.81;5023589;28;20032;-76
2023/10/05 02:27:09;;;;;;;17.10;6.30;;;;;;;15.56;74.23;94725.25;5023764;28;20014;-76
2023/10/05 02:29:03;;;;;;;14.45;6.35;;;;;;;15.55;73.87;94724.47;5010533;28;20244;-76
2023/10/05 02:31:50;;;;;;;13.43;5.93;;;;;;;15.57;73.46;94724.13;5023612;28;20021;-76
2023/10/05 02:34:17;;;;;;;13.65;5.05;;;;;;;15.61;73.40;94727.75;5038884;28;20026;-76
2023/10/05 02:36:43;;;;;;;15.50;5.55;;;;;;;15.59;73.36;94732.66;5023331;28;20068;-75
2023/10/05 02:39:08;;;;;;;12.15;5.60;;;;;;;15.57;73.49;94743.75;5023350;28;20045;-75
2023/10/05 02:41:56;;;;;;;18.85;6.05;;;;;;;15.58;73.44;94739.16;5023613;28;20033;-75
2023/10/05 02:44:31;;;;;;;10.30;4.68;;;;;;;15.58;73.41;94739.16;5023354;28;20018;-76
2023/10/05 02:46:56;;;;;;;13.55;5.28;;;;;;;15.51;73.92;94734.28;5023343;28;20025;-74
2023/10/05 02:49:25;;;;;;;19.20;5.82;;;;;;;15.50;73.97;94738.06;5022603;28;20030;-75
2023/10/05 02:51:54;;;;;;;14.95;6.25;;;;;;;15.51;73.83;94728.13;5021940;28;20032;-75
2023/10/05 02:54:24;;;;;;;14.88;5.65;;;;;;;15.53;73.93;94733.94;5022202;28;20316;-75
2023/10/05 02:56:53;;;;;;;13.02;5.50;;;;;;;15.54;73.91;94746.28;5023022;28;20041;-75
2023/10/05 02:59:21;;;;;;;17.05;6.65;;;;;;;15.53;73.85;94742.00;5023156;28;20037;-76
2023/10/05 03:01:47;;;;;;;13.57;6.55;;;;;;;15.54;73.88;94732.84;5023010;28;20021;-75
2023/10/05 03:06:39;;;;;;;15.07;5.95;;;;;;;15.47;73.51;94746.00;5022983;28;20014;-76
2023/10/05 03:09:08;;;;;;;14.57;5.57;;;;;;;15.48;73.34;94734.94;5023051;28;20025;-76
2023/10/05 03:11:54;;;;;;;14.93;5.30;;;;;;;15.47;73.54;94732.56;5022979;28;20096;-76
2023/10/05 03:14:21;;;;;;;14.65;5.45;;;;;;;15.45;73.17;94731.00;5022998;28;20081;-76
2023/10/05 03:16:56;;;;;;;19.02;5.88;;;;;;;15.45;73.25;94731.00;5022665;28;20220;-76
2023/10/05 03:19:21;;;;;;;18.83;6.20;;;;;;;15.44;73.32;94726.72;5022951;28;20312;-76
2023/10/05 03:21:52;;;;;;;21.95;5.45;;;;;;;15.43;73.32;94733.22;5022740;28;20048;-76
2023/10/05 03:24:24;;;;;;;16.95;5.97;;;;;;;15.38;73.45;94736.06;5022817;28;20068;-76
2023/10/05 03:26:54;;;;;;;21.45;6.00;;;;;;;15.33;73.41;94728.19;5022743;28;20026;-75
2023/10/05 03:29:21;;;;;;;15.60;5.03;;;;;;;15.32;73.35;94734.66;5022641;28;20129;-75
2023/10/05 03:31:53;;;;;;;15.98;5.53;;;;;;;15.30;73.70;94734.19;5022674;28;20033;-76
2023/10/05 03:34:20;;;;;;;23.60;5.95;;;;;;;15.28;73.67;94731.03;5022727;28;20068;-75
2023/10/05 03:36:47;;;;;;;15.23;6.20;;;;;;;15.26;73.82;94738.63;5022834;28;20049;-75
2023/10/05 03:39:14;;;;;;;13.10;5.28;;;;;;;15.24;73.41;94740.84;5022510;28;20348;-75
2023/10/05 03:41:39;;;;;;;18.80;5.15;;;;;;;15.18;73.44;94748.31;5022659;28;20224;-75
2023/10/05 03:44:07;;;;;;;14.20;5.20;;;;;;;15.16;73.41;94741.66;5022582;28;20518;-75
2023/10/05 03:46:36;;;;;;;15.38;6.03;;;;;;;15.12;73.78;94740.72;5022941;28;20189;-75
2023/10/05 03:49:02;;;;;;;11.52;5.35;;;;;;;15.09;74.31;94744.84;5022743;28;20014;-75
2023/10/05 03:51:29;;;;;;;12.68;5.90;;;;;;;15.05;74.47;94744.69;5022331;28;20041;-75
2023/10/05 03:53:54;;;;;;;15.52;6.60;;;;;;;15.02;74.77;94748.03;5022274;28;20117;-75
2023/10/05 03:56:21;;;;;;;15.48;6.50;;;;;;;15.02;75.12;94749.91;5022559;28;20026;-76
2023/10/05 03:58:52;;;;;;;21.88;7.20;;;;;;;14.97;74.87;94756.22;5022325;28;20037;-75
2023/10/05 04:01:18;;;;;;;28.20;6.57;;;;;;;14.95;74.58;94750.41;5022791;28;20030;-75
2023/10/05 04:03:44;;;;;;;20.85;5.68;;;;;;;14.90;74.99;94760.50;5025907;28;20036;-75
2023/10/05 04:06:26;;;;;;;11.85;5.80;;;;;;;14.82;75.02;94759.44;5026186;28;20064;-75
2023/10/05 04:08:57;;;;;;;20.35;6.03;;;;;;;14.77;75.44;94755.00;5026099;28;20033;-75
2023/10/05 04:11:26;;;;;;;12.98;5.30;;;;;;;14.78;75.58;94761.16;5026053;28;20103;-75
2023/10/05 04:13:53;;;;;;;17.63;5.90;;;;;;;14.78;75.51;94761.16;5024786;28;20033;-74
2023/10/05 04:16:22;;;;;;;11.75;5.95;;;;;;;14.73;75.42;94755.94;5025699;28;20032;-75
2023/10/05 04:18:52;;;;;;;21.13;5.45;;;;;;;14.75;75.66;94754.53;5026221;28;20343;-75
2023/10/05 04:21:22;;;;;;;21.20;5.97;;;;;;;14.76;75.22;94750.75;5025606;28;20248;-75
2023/10/05 04:23:51;;;;;;;15.82;7.40;;;;;;;14.74;75.45;94757.53;5025759;28;20224;-75
2023/10/05 04:26:20;;;;;;;11.35;5.60;;;;;;;14.73;75.35;94766.69;5025883;28;20205;-75
2023/10/05 04:28:52;;;;;;;16.00;5.22;;;;;;;14.72;75.67;94757.06;5025636;28;20026;-75
2023/10/05 04:31:27;;;;;;;;;;;;;;;14.63;75.39;94759.75;5026371;28;20060;-75
2023/10/05 04:33:54;;;;;;;18.38;5.40;;;;;;;14.53;75.62;94755.47;5025505;28;19909;-75
2023/10/05 04:36:22;;;;;;;13.85;4.78;;;;;;;14.49;75.65;94753.72;5025284;28;20093;-75
2023/10/05 04:38:48;;;;;;;11.88;5.22;;;;;;;14.48;75.73;94757.50;5025322;28;20103;-75
2023/10/05 04:41:14;;;;;;;20.70;4.85;;;;;;;14.51;75.60;94759.56;5025496;28;20041;-75
2023/10/05 04:43:40;;;;;;;26.88;5.38;;;;;;;14.52;75.25;94772.66;5025419;28;20258;-75
2023/10/05 04:46:07;;;;;;;15.93;5.80;;;;;;;14.52;75.59;94769.19;5025484;28;20022;-76
2023/10/05 04:48:32;;;;;;;18.85;5.28;;;;;;;14.44;75.91;94776.13;5025126;28;20049;-76
2023/10/05 04:51:01;;;;;;;16.73;5.50;;;;;;;14.42;76.11;94778.34;5025137;28;20076;-76
2023/10/05 04:53:27;;;;;;;16.98;5.93;;;;;;;14.39;76.34;94784.31;5025375;28;20048;-75
2023/10/05 04:56:10;;;;;;;13.82;6.50;;;;;;;14.36;76.44;94782.28;5025067;28;20332;-75
2023/10/05 04:58:53;;;;;;;;;;;;;;;14.34;76.60;94785.25;5024372;28;20119;-75
2023/10/05 05:01:28;;;;;;;16.60;6.55;;;;;;;14.30;76.87;94789.66;5025085;28;19905;-75
2023/10/05 05:03:56;;;;;;;27.42;8.20;;;;;;;14.28;76.87;94781.16;5024987;28;20089;-76
2023/10/05 05:06:25;;;;;;;22.52;6.20;;;;;;;14.32;76.70;94792.03;5024817;28;20025;-76
2023/10/05 05:08:51;;;;;;;23.20;7.25;;;;;;;14.34;76.86;94792.53;5024890;28;20026;-75
2023/10/05 05:11:18;;;;;;;16.25;5.75;;;;;;;14.36;76.79;94793.78;5024773;28;20144;-75
2023/10/05 05:13:48;;;;;;;27.40;6.63;;;;;;;14.40;76.51;94797.41;5024116;28;20053;-76
2023/10/05 05:16:15;;;;;;;21.05;6.38;;;;;;;14.43;76.16;94798.66;5024775;28;20224;-75
2023/10/05 05:18:41;;;;;;;18.08;6.45;;;;;;;14.40;75.41;94810.03;5024724;28;20040;-75
2023/10/05 05:21:13;;;;;;;24.50;6.70;;;;;;;14.42;75.12;94802.47;5024530;28;20022;-75
2023/10/05 05:23:42;;;;;;;21.42;6.15;;;;;;;14.40;74.64;94804.69;5024667;28;20358;-75
2023/10/05 05:26:11;;;;;;;14.32;6.00;;;;;;;14.42;74.73;94811.31;5024576;28;20308;-75
2023/10/05 05:28:37;;;;;;;24.55;5.63;;;;;;;14.45;74.31;94804.53;5024610;28;20026;-75
2023/10/05 05:31:06;;;;;;;21.23;6.10;;;;;;;14.41;73.62;94800.88;5024463;28;20037;-76
2023/10/05 05:33:32;;;;;;;18.98;5.82;;;;;;;14.47;73.70;94801.53;5024697;28;20037;-76
2023/10/05 05:35:58;;;;;;;22.65;5.88;;;;;;;14.49;72.89;94807.34;5024204;28;20034;-76
2023/10/05 05:38:23;;;;;;;12.57;5.40;;;;;;;14.51;72.78;94810.53;5024053;28;20046;-76
2023/10/05 05:40:49;;;;;;;17.73;4.93;;;;;;;14.57;72.82;94812.78;5039578;28;20072;-75
2023/10/05 05:43:14;;;;;;;11.38;5.25;;;;;;;14.62;72.40;94812.63;5023078;28;20093;-76
2023/10/05 05:45:43;;;;;;;24.70;6.43;;;;;;;14.67;72.00;94819.72;5022953;28;20025;-75
2023/10/05 05:48:13;;;;;;;20.52;6.00;;;;;;;14.73;71.72;94823.03;5024299;28;20343;-75
2023/10/05 05:50:43;;;;;;;24.25;6.20;;;;;;;14.81;71.67;94822.25;5022865;28;20120;-75
2023/10/05 05:53:11;;;;;;;20.92;7.13;;;;;;;14.89;71.58;94820.69;5023978;28;20129;-75
2023/10/05 05:55:43;;;;;;;18.27;5.85;;;;;;;14.94;71.36;94812.44;5023782;28;20022;-76
2023/10/05 05:58:14;;;;;;;21.00;5.20;;;;;;;15.01;71.16;94824.28;5022753;28;20021;-76
2023/10/05 06:00:40;;;;;;;17.35;5.80;;;;;;;15.09;70.76;94820.03;5024049;28;20018;-76
2023/10/05 06:03:10;;;;;;;17.63;5.47;;;;;;;15.18;69.99;94828.06;5024028;28;20022;-76
2023/10/05 06:05:35;;;;;;;17.85;5.18;;;;;;;15.28;69.29;94837.69;5023906;28;20224;-76
2023/10/05 06:08:03;;;;;;;20.75;5.75;;;;;;;15.32;68.88;94836.72;5023887;28;20025;-76
2023/10/05 06:10:28;;;;;;;17.35;6.70;;;;;;;15.35;68.81;94830.72;5024022;28;20251;-78
2023/10/05 06:12:54;;;;;;;16.63;6.07;;;;;;;15.40;68.72;94833.22;5022551;28;20018;-78
2023/10/05 06:15:20;;;;;;;22.13;6.18;;;;;;;15.43;69.35;94840.66;5023886;28;20021;-78
2023/10/05 06:17:46;;;;;;;19.65;5.97;;;;;;;15.48;69.37;94847.75;5022605;28;20030;-79
2023/10/05 06:20:15;;;;;;;21.30;6.00;;;;;;;15.54;69.10;94848.38;5023595;28;20044;-79
2023/10/05 06:22:45;;;;;;;15.50;5.78;;;;;;;15.58;68.30;94847.41;5022284;28;20056;-79
2023/10/05 06:25:19;;;;;;;27.88;6.15;;;;;;;15.57;67.58;94850.41;5022873;28;20263;-79
2023/10/05 06:27:45;;;;;;;28.38;5.40;;;;;;;15.54;66.82;94841.09;5023433;28;20018;-79
2023/10/05 06:30:11;;;;;;;12.88;4.30;;;;;;;15.61;67.08;94841.41;5023541;28;20028;-78
2023/10/05 06:32:38;;;;;;;32.92;6.40;;;;;;;15.64;67.55;94846.13;5023698;28;20052;-78
2023/10/05 06:35:16;;;;;;;20.58;4.15;;;;;;;15.70;65.74;94849.44;5023579;28;20049;-79
2023/10/05 06:37:43;;;;;;;14.35;4.50;;;;;;;15.73;64.44;94848.81;5022102;28;20049;-79
2023/10/05 06:40:12;;;;;;;22.98;3.92;;;;;;;15.75;64.65;94838.56;5023598;28;20319;-79
2023/10/05 06:42:42;;;;;;;19.00;4.35;;;;;;;15.79;62.43;94846.75;5023225;28;20257;-79
2023/10/05 06:45:11;;;;;;;15.55;4.75;;;;;;;15.80;62.84;94848.34;5023253;28;20045;-79
2023/10/05 06:47:36;;;;;;;15.40;3.67;;;;;;;15.82;63.31;94849.59;5023324;28;20091;-78
2023/10/05 06:50:08;;;;;;;21.75;5.32;;;;;;;15.89;63.10;94846.41;5023182;28;20236;-79
2023/10/05 06:52:46;;;;;;;8.10;3.40;;;;;;;15.88;62.52;94839.47;5022100;28;20022;-79
2023/10/05 06:55:14;;;;;;;8.95;4.15;;;;;;;15.81;62.39;94842.66;5022992;28;20277;-79
2023/10/05 06:57:43;;;;;;;17.45;4.05;;;;;;;15.91;62.21;94849.56;5022809;28;20028;-79
2023/10/05 07:00:21;;;;;;;12.75;3.80;;;;;;;15.97;62.15;94852.84;5022976;28;20021;-79
2023/10/05 07:02:48;;;;;;;9.05;4.25;;;;;;;15.98;62.40;94844.47;5021709;28;20041;-78
2023/10/05 07:05:15;;;;;;;27.42;4.70;;;;;;;16.09;62.47;94844.91;5023011;28;20138;-79
2023/10/05 07:07:40;;;;;;;17.90;3.80;;;;;;;16.20;61.96;94846.13;5023030;28;20017;-79
2023/10/05 07:10:07;;;;;;;10.90;3.75;;;;;;;16.25;61.37;94843.22;5022866;28;20030;-78
2023/10/05 07:12:41;;;;;;;13.75;3.85;;;;;;;16.32;62.03;94853.47;5023312;28;20022;-79
2023/10/05 07:15:08;;;;;;;12.48;4.10;;;;;;;16.32;61.10;94848.09;5023004;28;20025;-78
2023/10/05 07:17:33;;;;;;;19.33;4.32;;;;;;;16.30;61.20;94841.47;5022803;28;20021;-78
2023/10/05 07:19:59;;;;;;;34.08;5.28;;;;;;;16.28;61.35;94849.84;5022962;28;20220;-79
2023/10/05 07:22:25;;;;;;;16.73;4.80;;;;;;;16.33;61.01;94844.31;5022857;28;20136;-82
2023/10/05 07:24:50;;;;;;;18.70;3.70;;;;;;;16.36;61.07;94856.31;5022602;28;20328;-79
2023/10/05 07:27:16;;;;;;;20.75;4.25;;;;;;;16.36;60.98;94848.25;5022664;28;20022;-83
2023/10/05 07:29:45;;;;;;;12.48;2.88;;;;;;;16.31;60.82;94845.75;5022794;28;20033;-81
2023/10/05 07:32:14;;;;;;;13.73;3.85;;;;;;;16.38;60.70;94846.00;5022590;28;20026;-80
2023/10/05 07:34:43;;;;;;;16.27;3.55;;;;;;;16.41;60.84;94851.53;5022505;28;20041;-78
2023/10/05 07:37:12;;;;;;;14.30;3.83;;;;;;;16.49;61.53;94843.75;5025818;28;20049;-78
2023/10/05 07:39:38;;;;;;;14.50;4.45;;;;;;;16.55;60.34;94856.69;5026254;28;20069;-77
2023/10/05 07:42:04;;;;;;;12.93;3.65;;;;;;;16.61;60.46;94847.31;5026645;28;20021;-77
2023/10/05 07:44:30;;;;;;;13.57;4.50;;;;;;;16.70;61.44;94849.94;5025178;28;20026;-77
2023/10/05 07:46:55;;;;;;;14.15;4.40;;;;;;;16.80;60.61;94846.84;5026302;28;20033;-77
2023/10/05 07:49:20;;;;;;;10.38;4.20;;;;;;;16.95;60.19;94853.56;5026213;28;20026;-78
2023/10/05 07:51:46;;;;;;;13.43;4.57;;;;;;;17.07;59.72;94850.16;5026361;28;20025;-77
2023/10/05 07:54:11;;;;;;;15.68;3.88;;;;;;;17.15;59.46;94848.50;5026501;28;20056;-77
2023/10/05 07:56:37;;;;;;;7.85;3.85;;;;;;;17.17;59.45;94848.97;5026059;28;20033;-77
2023/10/05 07:59:02;;;;;;;9.88;3.95;;;;;;;17.23;58.93;94842.25;5026162;28;20102;-77
2023/10/05 08:01:32;;;;;;;14.80;4.80;;;;;;;17.27;59.60;94842.38;5041364;28;20060;-77
2023/10/05 08:03:58;;;;;;;13.20;4.68;;;;;;;17.37;58.72;94840.06;5025988;28;20018;-75
2023/10/05 08:06:25;;;;;;;13.43;4.18;;;;;;;17.40;58.84;94838.59;5024874;28;20021;-77
2023/10/05 08:08:53;;;;;;;12.48;4.10;;;;;;;17.45;58.76;94836.50;5026303;28;20265;-78
2023/10/05 08:11:20;;;;;;;18.95;4.35;;;;;;;17.58;58.59;94841.91;5024652;28;20071;-80
2023/10/05 08:13:45;;;;;;;14.85;4.50;;;;;;;17.64;57.91;94835.97;5025582;28;20041;-79
2023/10/05 08:16:12;;;;;;;11.52;4.10;;;;;;;17.76;57.65;94835.22;5025848;28;20034;-78
2023/10/05 08:18:38;;;;;;;18.27;3.88;;;;;;;17.80;57.37;94838.81;5025806;28;20026;-78
2023/10/05 08:21:07;;;;;;;16.13;4.13;;;;;;;17.76;57.17;94832.50;5025831;28;20053;-77
2023/10/05 08:23:33;;;;;;;18.10;4.93;;;;;;;17.81;57.76;94840.41;5025791;28;20093;-78
2023/10/05 08:25:59;;;;;;;12.02;4.47;;;;;;;17.87;57.35;94824.00;5025680;28;20365;-78
2023/10/05 08:28:25;;;;;;;11.73;4.90;;;;;;;17.97;57.58;94831.66;5025447;28;20026;-77
2023/10/05 08:31:06;;;;;;;15.32;4.40;;;;;;;18.06;56.97;94815.41;5025674;28;20029;-76
2023/10/05 08:33:35;;;;;;;14.13;5.05;;;;;;;18.22;56.69;94824.38;5025479;28;20037;-77
2023/10/05 08:36:06;;;;;;;20.58;4.78;;;;;;;18.31;55.82;94821.56;5025758;28;20030;-78
2023/10/05 08:38:36;;;;;;;27.67;4.90;;;;;;;18.29;56.14;94821.13;5025454;28;20053;-80
2023/10/05 08:41:07;;;;;;;12.02;4.45;;;;;;;18.34;55.85;94828.97;5025576;28;20025;-77
2023/10/05 08:43:39;;;;;;;12.35;5.38;;;;;;;18.29;55.53;94815.72;5025797;28;20093;-77
2023/10/05 08:46:10;;;;;;;18.77;4.63;;;;;;;18.29;56.61;94811.09;5025443;28;20030;-76
2023/10/05 08:48:36;;;;;;;29.92;5.60;;;;;;;18.34;56.71;94818.97;5024507;28;20256;-76
2023/10/05 08:51:10;;;;;;;16.27;5.28;;;;;;;18.46;56.39;94810.09;5025233;28;20030;-76
2023/10/05 08:53:44;;;;;;;17.20;6.30;;;;;;;18.49;55.88;94817.50;5023977;28;20091;-76
2023/10/05 08:56:13;;;;;;;22.38;5.07;;;;;;;18.57;56.19;94821.97;5025011;28;20022;-76
2023/10/05 08:58:42;;;;;;;17.13;5.57;;;;;;;18.61;55.62;94798.56;5025052;28;20093;-76
2023/10/05 09:01:30;;;;;;;19.98;5.97;;;;;;;18.72;55.38;94808.91;5024895;28;20336;-76
2023/10/05 09:04:43;;;;;;;15.23;5.55;;;;;;;18.85;55.26;94815.88;5040231;28;20113;-75
2023/10/05 09:06:52;;;;;;;20.63;6.30;;;;;;;18.98;54.53;94814.69;5016825;28;20030;-76
2023/10/05 09:09:39;;;;;;;21.83;6.78;;;;;;;18.99;54.66;94802.78;5025105;28;20272;-76
2023/10/05 09:12:42;;;;;;;30.50;5.50;;;;;;;19.09;54.78;94806.09;5025049;28;20022;-75
2023/10/05 09:15:37;;;;;;;19.50;6.13;;;;;;;19.20;54.89;94802.56;5024733;28;20045;-75
2023/10/05 09:20:36;;;;;;;10.82;4.60;;;;;;;19.43;54.07;94808.19;5024795;28;20037;-77
2023/10/05 09:23:07;;;;;;;18.58;5.28;;;;;;;19.37;53.68;94804.19;5024498;28;20078;-76
2023/10/05 09:25:36;;;;;;;25.17;5.63;;;;;;;19.43;53.83;94799.31;5024598;28;20034;-75
2023/10/05 09:28:16;;;;;;;9.15;4.25;;;;;;;19.44;53.96;94788.16;5023475;28;20026;-75
2023/10/05 09:30:55;;;;;;;13.70;4.82;;;;;;;19.61;54.01;94792.44;5024431;28;20093;-75
2023/10/05 09:33:26;;;;;;;10.13;4.40;;;;;;;19.76;54.11;94793.63;5024615;28;20045;-75
2023/10/05 09:36:06;;;;;;;22.08;8.13;;;;;;;19.90;53.93;94782.34;5024124;28;20048;-75
2023/10/05 09:38:38;;;;;;;10.70;5.28;;;;;;;20.03;53.82;94785.78;5024338;28;20248;-75
2023/10/05 09:41:05;;;;;;;14.77;5.72;;;;;;;20.20;52.66;94784.59;5024523;28;20029;-76
2023/10/05 09:43:38;;;;;;;16.67;5.32;;;;;;;20.33;52.62;94782.56;5024558;28;20030;-76
2023/10/05 09:46:09;;;;;;;17.27;4.63;;;;;;;20.45;51.30;94785.16;5023139;28;20018;-76
2023/10/05 09:48:37;;;;;;;15.43;5.10;;;;;;;20.50;50.82;94774.06;5024401;28;20084;-76
2023/10/05 09:51:10;;;;;;;17.20;5.18;;;;;;;20.48;50.54;94773.63;5023054;28;20265;-76
2023/10/05 09:53:39;;;;;;;13.93;5.30;;;;;;;20.45;50.92;94771.63;5023836;28;20089;-76
2023/10/05 09:56:11;;;;;;;15.77;6.28;;;;;;;20.50;50.72;94774.06;5024327;28;20042;-77
2023/10/05 09:58:39;;;;;;;11.45;6.22;;;;;;;20.48;51.11;94773.63;5023994;28;20050;-76
2023/10/05 10:01:12;;;;;;;15.63;5.47;;;;;;;20.43;50.76;94763.06;5022676;28;20037;-76
2023/10/05 10:03:45;;;;;;;18.83;5.50;;;;;;;20.52;50.62;94762.91;5023820;28;20056;-77
2023/10/05 10:06:13;;;;;;;22.65;5.35;;;;;;;20.46;51.41;94765.09;5024286;28;20049;-77
2023/10/05 10:08:55;;;;;;;16.58;5.60;;;;;;;20.57;51.48;94763.38;5023948;28;20212;-76
2023/10/05 10:11:27;;;;;;;21.20;6.20;;;;;;;20.67;50.57;94753.16;5023709;28;20063;-77
2023/10/05 10:14:06;;;;;;;17.35;5.43;;;;;;;20.76;50.18;94757.25;5023848;28;20347;-76
2023/10/05 10:16:39;;;;;;;16.33;4.75;;;;;;;20.92;50.64;94746.31;5023692;28;20068;-77
2023/10/05 10:19:07;;;;;;;13.00;5.43;;;;;;;21.08;50.32;94745.47;5023964;28;20022;-77
2023/10/05 10:21:57;;;;;;;17.65;5.05;;;;;;;21.24;48.81;94738.00;5023759;28;20185;-78
2023/10/05 10:24:28;;;;;;;15.75;5.75;;;;;;;21.32;48.85;94739.72;5023415;28;20363;-77
2023/10/05 10:27:07;;;;;;;13.13;5.63;;;;;;;21.46;48.52;94738.44;5022380;28;20263;-76
2023/10/05 10:29:46;;;;;;;28.30;6.07;;;;;;;21.52;48.39;94737.78;5022278;28;20316;-77
2023/10/05 10:32:19;;;;;;;13.68;4.72;;;;;;;21.56;47.91;94729.69;5022125;28;20025;-77
2023/10/05 10:34:55;;;;;;;21.55;5.13;;;;;;;21.58;48.14;94732.84;5023408;28;20029;-76
2023/10/05 10:37:40;;;;;;;20.67;5.47;;;;;;;21.58;47.68;94719.28;5022150;28;20045;-77
2023/10/05 10:42:54;;;;;;;16.75;5.97;;;;;;;21.80;47.44;94721.19;5022813;28;20034;-76
2023/10/05 10:45:29;;;;;;;17.40;6.07;;;;;;;21.87;46.98;94719.72;5021944;28;20026;-75
2023/10/05 10:47:58;;;;;;;20.92;5.35;;;;;;;21.86;46.48;94708.09;5022072;28;20049;-78
2023/10/05 10:50:29;;;;;;;18.30;5.90;;;;;;;21.91;46.93;94698.84;5021498;28;20255;-78
2023/10/05 10:52:55;;;;;;;9.50;4.72;;;;;;;22.07;46.41;94696.75;5023045;28;20026;-78
2023/10/05 10:55:30;;;;;;;15.27;5.25;;;;;;;22.12;46.69;94687.53;5022961;28;20213;-77
2023/10/05 10:57:57;;;;;;;29.50;5.45;;;;;;;22.20;47.22;94687.25;5021714;28;20025;-77
2023/10/05 11:03:11;;;;;;;12.65;6.40;;;;;;;22.27;46.98;94689.31;5021730;28;20072;-77
2023/10/05 11:05:40;;;;;;;18.23;5.75;;;;;;;22.29;45.78;94675.34;5020409;28;20268;-76
2023/10/05 11:08:12;;;;;;;14.25;5.82;;;;;;;22.29;45.56;94676.16;5021894;28;20036;-77
2023/10/05 11:10:40;;;;;;;12.32;6.35;;;;;;;22.22;46.06;94660.50;5021323;28;20053;-77
2023/10/05 11:13:14;;;;;;;13.75;5.68;;;;;;;22.20;45.69;94672.88;5021628;28;20021;-76
2023/10/05 11:15:49;;;;;;;13.90;5.50;;;;;;;22.26;46.12;94662.53;5022993;28;20034;-77
2023/10/05 11:18:18;;;;;;;14.20;5.55;;;;;;;22.38;46.64;94667.72;5021702;28;20026;-77
2023/10/05 11:20:52;;;;;;;15.05;5.93;;;;;;;22.50;46.21;94661.28;5022773;28;20014;-77
2023/10/05 11:23:25;;;;;;;14.50;5.30;;;;;;;22.67;45.88;94649.06;5022802;28;20022;-77
2023/10/05 11:25:52;;;;;;;15.90;6.55;;;;;;;22.76;44.42;94657.72;5022755;28;20076;-77
2023/10/05 11:28:24;;;;;;;21.67;7.07;;;;;;;22.77;44.89;94657.31;5022784;28;20028;-77
2023/10/05 11:30:50;;;;;;;16.98;5.45;;;;;;;22.80;44.59;94647.66;5021664;28;20045;-78
2023/10/05 11:33:15;;;;;;;19.45;5.38;;;;;;;22.91;44.65;94640.38;5022582;28;20021;-78
2023/10/05 11:35:49;;;;;;;17.88;5.60;;;;;;;22.95;44.99;94646.63;5021310;28;20022;-77
2023/10/05 11:38:19;;;;;;;12.65;5.88;;;;;;;23.00;45.02;94650.97;5022609;28;20046;-77
2023/10/05 11:40:53;;;;;;;12.65;6.28;;;;;;;23.03;43.55;94640.16;5022435;28;20029;-77
2023/10/05 11:43:20;;;;;;;16.25;5.45;;;;;;;23.06;43.49;94643.28;5021179;28;20030;-77
2023/10/05 11:46:16;;;;;;;13.93;6.50;;;;;;;23.13;44.12;94640.63;5022680;28;20272;-78
2023/10/05 11:48:47;;;;;;;17.05;4.97;;;;;;;23.26;44.36;94639.19;5022599;28;20024;-77
2023/10/05 11:51:16;;;;;;;18.33;6.72;;;;;;;23.34;43.51;94640.81;5022433;28;20028;-77